Richelieu — ZDHS7 — position and weather

sailwx.info

Track history (hours):
 
Tides and Currents Weather Stations Pressure Air Temp Water Temp Dewpoint Dewpoint Depression Visibility Wind Speed Wind Dir Waves Ship Positions

Richelieu

Last reported at 2018-Feb-22 10:29 UTC. Time now 2018-Feb-22 11:18 UTC.
Position N 56°16' E 012°12'.

Length 89 m; draft 5.4 m.

Type: Cargo ship. MMSI: 236354000.

Date/timePositionNaut miles runAvg speedWind from/ knotsBaromVisibWave heightAir tempDewpointWater temp
2018-Feb-22 10:29N 56°16' E 012°12'4 9.1
2018-Feb-22 10:01N 56°13' E 012°18'5 9.7
2018-Feb-22 09:30N 56°10' E 012°25'611.2
2018-Feb-22 09:00N 56°07' E 012°33'511.0
2018-Feb-22 08:31N 56°02' E 012°40'510.3
2018-Feb-22 08:01N 55°57' E 012°43'510.3
2018-Feb-22 07:31N 55°52' E 012°44'510.0
2018-Feb-22 07:00N 55°47' E 012°43'510.0
2018-Feb-22 06:30N 55°43' E 012°41'510.5
2018-Feb-22 06:00N 55°37' E 012°42'510.1
2018-Feb-22 05:30N 55°32' E 012°43'5 9.8
2018-Feb-22 05:00N 55°27' E 012°42'45 9.1
2018-Feb-22 00:02N 54°43' E 012°36'1 9.2
2018-Feb-21 23:54N 54°42' E 012°34'7 9.3
2018-Feb-21 23:10N 54°38' E 012°24'6 8.9
2018-Feb-21 22:31N 54°34' E 012°17'5 9.2
2018-Feb-21 22:01N 54°30' E 012°15'5 9.1
2018-Feb-21 21:30N 54°26' E 012°11'5 9.2
2018-Feb-21 21:00N 54°24' E 012°04'5 9.7
2018-Feb-21 20:30N 54°23' E 011°56'5 9.5
2018-Feb-21 20:00N 54°21' E 011°48'17 9.1
2018-Feb-21 18:08N 54°09' E 011°28'1 9.6
2018-Feb-21 17:59N 54°07' E 011°27'4 8.6
2018-Feb-21 17:30N 54°03' E 011°26'4 8.8
2018-Feb-21 17:00N 54°01' E 011°20'4 8.5
2018-Feb-21 16:30N 53°57' E 011°24'4 7.5
2018-Feb-21 16:01N 53°54' E 011°28'0 0.2
2018-Feb-21 15:28N 53°54' E 011°28'0 0.0
2018-Feb-21 14:58N 53°54' E 011°28'0 0.0
2018-Feb-21 14:28N 53°54' E 011°28'0 0.0
2018-Feb-21 13:58N 53°54' E 011°28'0 0.0
2018-Feb-21 13:25N 53°54' E 011°28'0 0.0
2018-Feb-21 12:58N 53°54' E 011°28'0 0.0
2018-Feb-21 12:28N 53°54' E 011°28'0 0.0
2018-Feb-21 11:58N 53°54' E 011°28'0 0.0
2018-Feb-21 11:28N 53°54' E 011°28'0 0.0
2018-Feb-21 10:58N 53°54' E 011°28'0 0.0
2018-Feb-21 10:28N 53°54' E 011°28'0 0.0
2018-Feb-21 09:58N 53°54' E 011°28'0 0.0
2018-Feb-21 09:28N 53°54' E 011°28'0 0.0
2018-Feb-21 08:58N 53°54' E 011°28'0 0.0
2018-Feb-21 08:28N 53°54' E 011°28'0 0.0
2018-Feb-21 07:58N 53°54' E 011°28'0 0.0
2018-Feb-21 07:28N 53°54' E 011°28'0 0.0
2018-Feb-21 06:58N 53°54' E 011°28'0 0.0
2018-Feb-21 06:28N 53°54' E 011°28'0 0.0
2018-Feb-21 05:58N 53°54' E 011°28'0 0.0
2018-Feb-21 05:25N 53°54' E 011°28'0 0.0
2018-Feb-21 04:58N 53°54' E 011°28'0 0.0
2018-Feb-21 04:28N 53°54' E 011°28'0 0.0
2018-Feb-21 03:58N 53°54' E 011°28'0 0.0
2018-Feb-21 03:28N 53°54' E 011°28'0 0.0
2018-Feb-21 02:58N 53°54' E 011°28'0 0.0
2018-Feb-21 02:28N 53°54' E 011°28'0 0.0
2018-Feb-21 01:58N 53°54' E 011°28'0 0.0
2018-Feb-21 01:28N 53°54' E 011°28'0 0.0
2018-Feb-21 00:58N 53°54' E 011°28'0 0.0
2018-Feb-21 00:28N 53°54' E 011°28'0 0.0
2018-Feb-20 23:58N 53°54' E 011°28'0 0.0
2018-Feb-20 23:28N 53°54' E 011°28'0 0.0
2018-Feb-20 22:58N 53°54' E 011°28'0 0.0
2018-Feb-20 22:28N 53°54' E 011°28'0 0.0
2018-Feb-20 21:58N 53°54' E 011°28'0 0.0
2018-Feb-20 21:28N 53°54' E 011°28'0 0.0
2018-Feb-20 20:58N 53°54' E 011°28'0 0.0
2018-Feb-20 20:28N 53°54' E 011°28'0 0.0
2018-Feb-20 19:58N 53°54' E 011°28'0 0.0
2018-Feb-20 19:28N 53°54' E 011°28'0 0.0
2018-Feb-20 18:58N 53°54' E 011°28'0 0.0
2018-Feb-20 18:28N 53°54' E 011°28'0 0.0
2018-Feb-20 17:58N 53°54' E 011°28'0 0.4
2018-Feb-20 17:28N 53°54' E 011°27'0 0.3
2018-Feb-20 16:58N 53°54' E 011°28'0 0.0
2018-Feb-20 16:28N 53°54' E 011°28'0 0.0
2018-Feb-20 15:58N 53°54' E 011°28'0 0.0
2018-Feb-20 15:28N 53°54' E 011°28'0 0.0
2018-Feb-20 14:58N 53°54' E 011°28'0 0.0
2018-Feb-20 14:28N 53°54' E 011°28'0 0.0
2018-Feb-20 13:58N 53°54' E 011°28'0 0.0
2018-Feb-20 13:28N 53°54' E 011°28'0 0.0
2018-Feb-20 12:58N 53°54' E 011°28'0 0.0
2018-Feb-20 12:28N 53°54' E 011°28'0 0.0
2018-Feb-20 11:58N 53°54' E 011°28'0 0.0
2018-Feb-20 11:28N 53°54' E 011°28'0 0.0
2018-Feb-20 10:58N 53°54' E 011°28'0 0.0
2018-Feb-20 10:28N 53°54' E 011°28'0 0.0
2018-Feb-20 09:58N 53°54' E 011°28'0 0.0
2018-Feb-20 09:25N 53°54' E 011°28'0 0.0
2018-Feb-20 08:58N 53°54' E 011°28'0 0.0
2018-Feb-20 08:28N 53°54' E 011°28'0 0.0
2018-Feb-20 07:58N 53°54' E 011°28'0 0.0
2018-Feb-20 07:28N 53°54' E 011°28'0 0.0
2018-Feb-20 06:58N 53°54' E 011°28'0 0.0
2018-Feb-20 06:28N 53°54' E 011°28'0 0.0
2018-Feb-20 05:58N 53°54' E 011°28'0 0.0
2018-Feb-20 05:28N 53°54' E 011°28'0 0.0
2018-Feb-20 04:58N 53°54' E 011°28'0 0.0
2018-Feb-20 04:28N 53°54' E 011°28'0 0.0
2018-Feb-20 03:58N 53°54' E 011°28'0 0.0
2018-Feb-20 03:28N 53°54' E 011°28'0 0.0
2018-Feb-20 02:58N 53°54' E 011°28'0 0.0
2018-Feb-20 02:28N 53°54' E 011°28'0 0.0
2018-Feb-20 01:58N 53°54' E 011°28'0 0.0
2018-Feb-20 01:28N 53°54' E 011°28'0 0.0
2018-Feb-20 00:58N 53°54' E 011°28'0 0.0
2018-Feb-20 00:28N 53°54' E 011°28'0 0.0
2018-Feb-19 23:58N 53°54' E 011°28'0 0.0
2018-Feb-19 23:28N 53°54' E 011°28'0 0.0
2018-Feb-19 22:58N 53°54' E 011°28'0 0.0
2018-Feb-19 22:28N 53°54' E 011°28'0 0.0
2018-Feb-19 21:58N 53°54' E 011°28'0 0.0
2018-Feb-19 21:25N 53°54' E 011°28'0 0.0
2018-Feb-19 20:58N 53°54' E 011°28'0 0.0
2018-Feb-19 20:28N 53°54' E 011°28'0 0.0
2018-Feb-19 19:58N 53°54' E 011°28'0 0.0
2018-Feb-19 19:28N 53°54' E 011°28'0 0.0
2018-Feb-19 18:58N 53°54' E 011°28'0 0.0
2018-Feb-19 18:28N 53°54' E 011°28'0 0.0
2018-Feb-19 17:58N 53°54' E 011°28'0 0.0
2018-Feb-19 17:28N 53°54' E 011°28'0 0.0
2018-Feb-19 16:58N 53°54' E 011°28'0 0.0
2018-Feb-19 16:28N 53°54' E 011°28'0 0.0
2018-Feb-19 15:58N 53°54' E 011°28'0 0.0
2018-Feb-19 15:28N 53°54' E 011°28'0 0.0
2018-Feb-19 14:58N 53°54' E 011°28'0 0.0
2018-Feb-19 14:28N 53°54' E 011°28'0 0.0
2018-Feb-19 13:58N 53°54' E 011°28'0 0.0
2018-Feb-19 13:28N 53°54' E 011°28'0 0.0
2018-Feb-19 12:58N 53°54' E 011°28'0 0.0
2018-Feb-19 12:28N 53°54' E 011°28'0 0.0
2018-Feb-19 11:58N 53°54' E 011°28'0 0.0
2018-Feb-19 11:28N 53°54' E 011°28'0 0.0
2018-Feb-19 10:58N 53°54' E 011°28'0 0.0
2018-Feb-19 10:28N 53°54' E 011°28'0 0.0
2018-Feb-19 09:58N 53°54' E 011°28'0 0.0
2018-Feb-19 09:28N 53°54' E 011°28'0 0.0
2018-Feb-19 08:58N 53°54' E 011°28'0 0.0
2018-Feb-19 08:25N 53°54' E 011°28'0 0.0
2018-Feb-19 07:58N 53°54' E 011°28'0 0.0
2018-Feb-19 07:28N 53°54' E 011°28'0 0.0
2018-Feb-19 06:58N 53°54' E 011°28'0 0.0
2018-Feb-19 06:28N 53°54' E 011°28'0 0.0
2018-Feb-19 05:58N 53°54' E 011°28'0 0.0
2018-Feb-19 05:28N 53°54' E 011°28'0 0.0
2018-Feb-19 04:58N 53°54' E 011°28'0 0.0
2018-Feb-19 04:28N 53°54' E 011°28'0 0.0
2018-Feb-19 03:58N 53°54' E 011°28'0 0.0
2018-Feb-19 03:28N 53°54' E 011°28'0 0.0
2018-Feb-19 02:58N 53°54' E 011°28'0 0.0
2018-Feb-19 02:28N 53°54' E 011°28'0 0.0
2018-Feb-19 01:58N 53°54' E 011°28'0 0.0
2018-Feb-19 01:28N 53°54' E 011°28'0 0.0
2018-Feb-19 00:58N 53°54' E 011°28'0 0.0
2018-Feb-19 00:28N 53°54' E 011°28'0 0.0
2018-Feb-18 23:58N 53°54' E 011°28'0 0.0
2018-Feb-18 23:28N 53°54' E 011°28'0 0.0
2018-Feb-18 22:58N 53°54' E 011°28'0 0.0
2018-Feb-18 22:28N 53°54' E 011°28'0 0.0
2018-Feb-18 21:58N 53°54' E 011°28'0 0.0
2018-Feb-18 21:28N 53°54' E 011°28'0 0.0
2018-Feb-18 20:58N 53°54' E 011°28'0 0.0
2018-Feb-18 20:28N 53°54' E 011°28'0 0.0
2018-Feb-18 19:58N 53°54' E 011°28'0 0.0
2018-Feb-18 19:28N 53°54' E 011°28'0 0.0
2018-Feb-18 18:58N 53°54' E 011°28'0 0.0
2018-Feb-18 18:28N 53°54' E 011°28'0 0.0
2018-Feb-18 17:58N 53°54' E 011°28'0 0.0
2018-Feb-18 17:28N 53°54' E 011°28'0 0.0
2018-Feb-18 16:58N 53°54' E 011°28'0 0.0
2018-Feb-18 16:28N 53°54' E 011°28'0 0.0
2018-Feb-18 15:58N 53°54' E 011°28'0 0.0
2018-Feb-18 15:28N 53°54' E 011°28'0 0.0
2018-Feb-18 14:58N 53°54' E 011°28'0 0.0
2018-Feb-18 14:28N 53°54' E 011°28'0 0.0
2018-Feb-18 13:55N 53°54' E 011°28'0 0.0
2018-Feb-18 13:28N 53°54' E 011°28'0 0.0
2018-Feb-18 12:58N 53°54' E 011°28'0 0.0
2018-Feb-18 12:25N 53°54' E 011°28'0 0.0
2018-Feb-18 11:58N 53°54' E 011°28'0 0.0
2018-Feb-18 11:28N 53°54' E 011°28'0 0.0
2018-Feb-18 10:58N 53°54' E 011°28'0 0.0
2018-Feb-18 10:28N 53°54' E 011°28'0 0.0
2018-Feb-18 09:58N 53°54' E 011°28'0 0.0
2018-Feb-18 09:28N 53°54' E 011°28'0 0.0
2018-Feb-18 08:58N 53°54' E 011°28'0 0.0
2018-Feb-18 08:28N 53°54' E 011°28'0 0.0
2018-Feb-18 07:58N 53°54' E 011°28'0 0.0
2018-Feb-18 07:28N 53°54' E 011°28'0 0.0
2018-Feb-18 06:58N 53°54' E 011°28'0 0.0
2018-Feb-18 06:28N 53°54' E 011°28'0 0.0
2018-Feb-18 05:58N 53°54' E 011°28'0 0.0
2018-Feb-18 05:28N 53°54' E 011°28'0 0.0
2018-Feb-18 04:58N 53°54' E 011°28'0 0.0
2018-Feb-18 04:28N 53°54' E 011°28'0 0.0
2018-Feb-18 03:58N 53°54' E 011°28'0 0.0
2018-Feb-18 03:28N 53°54' E 011°28'0 0.0
2018-Feb-18 02:58N 53°54' E 011°28'0 0.0
2018-Feb-18 02:28N 53°54' E 011°28'0 0.0
2018-Feb-18 01:58N 53°54' E 011°28'0 0.0
2018-Feb-18 01:28N 53°54' E 011°28'0 0.0
2018-Feb-18 00:58N 53°54' E 011°28'0 0.0
2018-Feb-18 00:28N 53°54' E 011°28'0 0.0
2018-Feb-17 23:55N 53°54' E 011°28'0 0.0
2018-Feb-17 23:28N 53°54' E 011°28'0 0.0
2018-Feb-17 22:58N 53°54' E 011°28'0 0.0
2018-Feb-17 22:28N 53°54' E 011°28'0 0.0
2018-Feb-17 21:58N 53°54' E 011°28'0 0.0
2018-Feb-17 21:28N 53°54' E 011°28'0 0.0
2018-Feb-17 20:58N 53°54' E 011°28'0 0.0
2018-Feb-17 20:28N 53°54' E 011°28'0 0.0
2018-Feb-17 19:58N 53°54' E 011°28'0 0.0
2018-Feb-17 19:28N 53°54' E 011°28'0 0.0
2018-Feb-17 18:58N 53°54' E 011°28'0 0.0
2018-Feb-17 18:28N 53°54' E 011°28'0 0.0
2018-Feb-17 17:58N 53°54' E 011°28'0 0.0
2018-Feb-17 17:28N 53°54' E 011°28'0 0.0
2018-Feb-17 16:58N 53°54' E 011°28'0 0.0
2018-Feb-17 16:28N 53°54' E 011°28'0 0.0
2018-Feb-17 15:58N 53°54' E 011°28'0 0.0
2018-Feb-17 15:28N 53°54' E 011°28'0 0.0
2018-Feb-17 14:58N 53°54' E 011°28'0 0.0
2018-Feb-17 14:28N 53°54' E 011°28'0 0.0
2018-Feb-17 13:58N 53°54' E 011°28'0 0.0
2018-Feb-17 13:28N 53°54' E 011°28'0 0.0
2018-Feb-17 12:58N 53°54' E 011°28'0 0.0
2018-Feb-17 12:28N 53°54' E 011°28'0 0.0
2018-Feb-17 11:58N 53°54' E 011°28'0 0.0
2018-Feb-17 11:28N 53°54' E 011°28'0 0.0
2018-Feb-17 10:58N 53°54' E 011°28'0 0.0
2018-Feb-17 10:28N 53°54' E 011°28'0 0.0
2018-Feb-17 09:58N 53°54' E 011°28'0 0.0
2018-Feb-17 09:28N 53°54' E 011°28'0 0.0
2018-Feb-17 08:58N 53°54' E 011°28'0 0.0
2018-Feb-17 08:28N 53°54' E 011°28'0 0.0
2018-Feb-17 07:58N 53°54' E 011°28'0 0.0
2018-Feb-17 07:28N 53°54' E 011°28'0 0.0
2018-Feb-17 06:58N 53°54' E 011°28'0 0.0
2018-Feb-17 06:28N 53°54' E 011°28'0 0.0
2018-Feb-17 05:58N 53°54' E 011°28'0 0.0
2018-Feb-17 05:28N 53°54' E 011°28'0 0.6
2018-Feb-17 05:00N 53°54' E 011°27'4 7.3
2018-Feb-17 04:30N 53°57' E 011°24'4 7.8
2018-Feb-17 04:00N 54°00' E 011°20'4 7.6
2018-Feb-17 03:30N 54°03' E 011°25'4 7.5
2018-Feb-17 03:00N 54°06' E 011°26'13 7.5
2018-Feb-17 01:16N 54°18' E 011°37'2 7.9
2018-Feb-17 01:00N 54°18' E 011°40'4 7.8
2018-Feb-17 00:30N 54°20' E 011°46'4 7.5
2018-Feb-17 00:00N 54°23' E 011°52'6 7.4
2018-Feb-16 23:15N 54°25' E 011°60'2 7.0
2018-Feb-16 23:00N 54°26' E 012°03'3 6.8
2018-Feb-16 22:30N 54°26' E 012°08'4 7.0
2018-Feb-16 22:00N 54°29' E 012°11'4 7.6
2018-Feb-16 21:30N 54°33' E 012°13'48 7.2
2018-Feb-16 14:46N 55°20' E 012°30'5 8.1
2018-Feb-16 14:09N 55°25' E 012°27'0 0.2
2018-Feb-16 13:22N 55°25' E 012°27'0 0.0
2018-Feb-16 11:55N 55°25' E 012°27'0 0.0
2018-Feb-16 11:30N 55°25' E 012°27'0 0.0
2018-Feb-16 10:39N 55°25' E 012°27'0 0.0
2018-Feb-16 10:29N 55°25' E 012°27'0 0.0
2018-Feb-16 08:31N 55°25' E 012°27'0 0.0
2018-Feb-16 05:39N 55°25' E 012°27'0 0.0
2018-Feb-16 05:30N 55°25' E 012°27'0 0.0
2018-Feb-16 05:00N 55°25' E 012°27'0 0.0
2018-Feb-16 04:29N 55°25' E 012°27'0 0.0
2018-Feb-16 03:59N 55°25' E 012°27'0 0.0
2018-Feb-15 18:50N 55°25' E 012°27'1 1.3
2018-Feb-15 18:24N 55°25' E 012°27'3 4.7
2018-Feb-15 17:50N 55°27' E 012°24'2 5.9
2018-Feb-15 17:27N 55°28' E 012°20'5 7.7
2018-Feb-15 16:49N 55°27' E 012°12'0 0.0
2018-Feb-15 16:29N 55°27' E 012°12'0 0.0
2018-Feb-15 15:53N 55°27' E 012°12'0 0.0
2018-Feb-15 15:29N 55°27' E 012°12'0 0.0
2018-Feb-15 14:59N 55°27' E 012°12'0 0.0
2018-Feb-15 14:17N 55°27' E 012°12'0 0.0
2018-Feb-15 13:53N 55°27' E 012°12'0 0.0
2018-Feb-15 13:29N 55°27' E 012°12'0 0.0
2018-Feb-15 12:59N 55°27' E 012°12'0 0.0
2018-Feb-15 12:29N 55°27' E 012°12'0 0.0
2018-Feb-15 11:56N 55°27' E 012°12'0 0.0
2018-Feb-15 11:20N 55°27' E 012°12'0 0.0
2018-Feb-15 10:59N 55°27' E 012°12'0 0.0
2018-Feb-15 10:20N 55°27' E 012°12'0 0.0
2018-Feb-15 09:59N 55°27' E 012°12'0 0.0
2018-Feb-15 09:29N 55°27' E 012°12'0 0.0
2018-Feb-15 08:59N 55°27' E 012°12'0 0.0
2018-Feb-15 08:17N 55°27' E 012°12'0 0.0
2018-Feb-15 07:59N 55°27' E 012°12'0 0.0
2018-Feb-15 07:23N 55°27' E 012°12'0 0.0
2018-Feb-15 06:59N 55°27' E 012°12'0 0.0
2018-Feb-15 06:20N 55°27' E 012°12'0 0.0
2018-Feb-15 05:59N 55°27' E 012°12'0 0.0
2018-Feb-15 05:26N 55°27' E 012°12'0 0.0
2018-Feb-15 04:59N 55°27' E 012°12'0 0.0
2018-Feb-15 04:26N 55°27' E 012°12'0 0.0
2018-Feb-15 03:59N 55°27' E 012°12'0 0.0
2018-Feb-15 03:26N 55°27' E 012°12'0 0.0
2018-Feb-15 02:59N 55°27' E 012°12'0 0.0
2018-Feb-15 02:29N 55°27' E 012°12'0 0.0
2018-Feb-15 01:59N 55°27' E 012°12'0 0.0
2018-Feb-15 01:26N 55°27' E 012°12'0 0.0
2018-Feb-15 00:56N 55°27' E 012°12'0 0.0
2018-Feb-15 00:26N 55°27' E 012°12'0 0.0
2018-Feb-14 23:59N 55°27' E 012°12'0 0.0
2018-Feb-14 23:29N 55°27' E 012°12'0 0.0
2018-Feb-14 22:56N 55°27' E 012°12'0 0.0
2018-Feb-14 22:29N 55°27' E 012°12'0 0.0
2018-Feb-14 21:59N 55°27' E 012°12'0 0.0
2018-Feb-14 21:26N 55°27' E 012°12'0 0.0
2018-Feb-14 20:56N 55°27' E 012°12'0 0.0
2018-Feb-14 20:29N 55°27' E 012°12'0 0.0
2018-Feb-14 19:59N 55°27' E 012°12'0 0.0
2018-Feb-14 19:23N 55°27' E 012°12'0 0.0
2018-Feb-14 18:56N 55°27' E 012°12'0 0.0
2018-Feb-14 18:23N 55°27' E 012°12'0 0.0
2018-Feb-14 17:59N 55°27' E 012°12'0 0.0
2018-Feb-14 17:26N 55°27' E 012°12'0 0.0
2018-Feb-14 16:56N 55°27' E 012°12'0 0.0
2018-Feb-14 16:29N 55°27' E 012°12'0 0.0
2018-Feb-14 15:59N 55°27' E 012°12'0 0.0
2018-Feb-14 15:23N 55°27' E 012°12'0 0.0
2018-Feb-14 14:56N 55°27' E 012°12'0 0.0
2018-Feb-14 12:44N 55°27' E 012°12'0 0.0
2018-Feb-14 12:17N 55°27' E 012°12'0 0.0
2018-Feb-14 11:56N 55°27' E 012°12'0 0.0
2018-Feb-14 11:29N 55°27' E 012°12'0 0.0
2018-Feb-14 10:53N 55°27' E 012°12'0 0.0
2018-Feb-14 10:29N 55°27' E 012°12'0 0.0
2018-Feb-14 09:53N 55°27' E 012°12'0 0.0
2018-Feb-14 09:29N 55°27' E 012°12'0 0.0
2018-Feb-14 08:59N 55°27' E 012°12'0 0.0
2018-Feb-14 08:29N 55°27' E 012°12'0 0.0
2018-Feb-14 07:56N 55°27' E 012°12'0 0.0
2018-Feb-14 07:29N 55°27' E 012°12'0 0.0
2018-Feb-14 06:59N 55°27' E 012°12'0 0.0
2018-Feb-14 06:29N 55°27' E 012°12'0 0.0
2018-Feb-14 05:56N 55°27' E 012°12'0 0.0
2018-Feb-14 05:29N 55°27' E 012°12'0 0.0
2018-Feb-14 04:59N 55°27' E 012°12'0 0.0
2018-Feb-14 04:29N 55°27' E 012°12'0 0.0
2018-Feb-14 03:59N 55°27' E 012°12'0 0.0
2018-Feb-14 03:29N 55°27' E 012°12'0 0.0
2018-Feb-14 02:59N 55°27' E 012°12'0 0.0
2018-Feb-14 02:29N 55°27' E 012°12'0 0.0
2018-Feb-14 01:56N 55°27' E 012°12'0 0.0
2018-Feb-14 01:29N 55°27' E 012°12'0 0.0
2018-Feb-14 00:59N 55°27' E 012°12'0 0.0
2018-Feb-14 00:29N 55°27' E 012°12'0 0.0
2018-Feb-13 23:56N 55°27' E 012°12'0 0.0
2018-Feb-13 23:29N 55°27' E 012°12'0 0.0
2018-Feb-13 22:59N 55°27' E 012°12'0 0.0
2018-Feb-13 22:29N 55°27' E 012°12'0 0.0
2018-Feb-13 21:59N 55°27' E 012°12'0 0.0
2018-Feb-13 21:26N 55°27' E 012°12'0 0.0
2018-Feb-13 20:53N 55°27' E 012°12'0 0.0
2018-Feb-13 20:26N 55°27' E 012°12'0 0.0
2018-Feb-13 19:59N 55°27' E 012°12'0 0.0
2018-Feb-13 19:29N 55°27' E 012°12'0 0.0
2018-Feb-13 18:56N 55°27' E 012°12'0 0.0
2018-Feb-13 18:26N 55°27' E 012°12'0 0.0
2018-Feb-13 17:59N 55°27' E 012°12'0 0.0
2018-Feb-13 17:29N 55°27' E 012°12'0 0.1
2018-Feb-13 16:56N 55°27' E 012°12'0 0.2
2018-Feb-13 16:29N 55°27' E 012°12'0 0.0
2018-Feb-13 15:59N 55°27' E 012°12'0 0.0
2018-Feb-13 15:29N 55°27' E 012°12'0 0.0
2018-Feb-13 14:59N 55°27' E 012°12'0 0.0
2018-Feb-13 14:29N 55°27' E 012°12'0 0.0
2018-Feb-13 13:59N 55°27' E 012°12'0 0.0
2018-Feb-13 13:29N 55°27' E 012°12'0 0.0
2018-Feb-13 12:53N 55°27' E 012°12'0 0.0
2018-Feb-13 12:29N 55°27' E 012°12'0 0.0
2018-Feb-13 11:59N 55°27' E 012°12'0 0.0
2018-Feb-13 11:29N 55°27' E 012°12'0 0.0
2018-Feb-13 10:59N 55°27' E 012°12'0 0.0
2018-Feb-13 10:26N 55°27' E 012°12'0 0.0
2018-Feb-13 09:59N 55°27' E 012°12'0 0.0
2018-Feb-13 09:23N 55°27' E 012°12'0 0.0
2018-Feb-13 08:56N 55°27' E 012°12'0 0.0
2018-Feb-13 08:23N 55°27' E 012°12'0 0.0
2018-Feb-13 07:59N 55°27' E 012°12'0 0.0
2018-Feb-13 07:29N 55°27' E 012°12'0 0.0
2018-Feb-13 06:59N 55°27' E 012°12'0 0.0
2018-Feb-13 06:26N 55°27' E 012°12'0 0.0
2018-Feb-13 05:59N 55°27' E 012°12'0 0.0
2018-Feb-13 05:29N 55°27' E 012°12'0 0.0
2018-Feb-13 04:56N 55°27' E 012°12'0 0.0
2018-Feb-13 04:29N 55°27' E 012°12'0 0.0
2018-Feb-13 03:59N 55°27' E 012°12'0 0.0
2018-Feb-13 03:29N 55°27' E 012°12'0 0.0
2018-Feb-13 02:59N 55°27' E 012°12'0 0.0
2018-Feb-13 02:29N 55°27' E 012°12'0 0.0
2018-Feb-13 01:56N 55°27' E 012°12'0 0.0
2018-Feb-13 01:29N 55°27' E 012°12'0 0.0
2018-Feb-13 00:59N 55°27' E 012°12'0 0.0
2018-Feb-13 00:29N 55°27' E 012°12'0 0.0
2018-Feb-12 23:59N 55°27' E 012°12'0 0.0
2018-Feb-12 23:29N 55°27' E 012°12'0 0.0
2018-Feb-12 22:59N 55°27' E 012°12'0 0.0
2018-Feb-12 22:29N 55°27' E 012°12'0 0.0
2018-Feb-12 21:59N 55°27' E 012°12'0 0.0
2018-Feb-12 21:26N 55°27' E 012°12'0 0.0
2018-Feb-12 20:59N 55°27' E 012°12'0 0.0
2018-Feb-12 20:20N 55°27' E 012°12'0 0.0
2018-Feb-12 19:59N 55°27' E 012°12'0 0.0
2018-Feb-12 19:29N 55°27' E 012°12'0 0.0
2018-Feb-12 18:56N 55°27' E 012°12'0 0.0
2018-Feb-12 18:26N 55°27' E 012°12'0 0.0
2018-Feb-12 17:53N 55°27' E 012°12'0 0.0
2018-Feb-12 17:29N 55°27' E 012°12'0 0.0
2018-Feb-12 16:59N 55°27' E 012°12'0 0.0
2018-Feb-12 16:29N 55°27' E 012°12'0 0.0
2018-Feb-12 15:59N 55°27' E 012°12'0 0.0
2018-Feb-12 15:17N 55°27' E 012°12'0 0.0
2018-Feb-12 14:59N 55°27' E 012°12'0 0.0
2018-Feb-12 13:59N 55°27' E 012°12'0 0.0
2018-Feb-12 13:26N 55°27' E 012°12'0 0.0
2018-Feb-12 12:56N 55°27' E 012°12'0 0.0
2018-Feb-12 12:29N 55°27' E 012°12'0 0.0
2018-Feb-12 11:50N 55°27' E 012°12'0 0.0
2018-Feb-12 11:26N 55°27' E 012°12'0 0.0
2018-Feb-12 10:59N 55°27' E 012°12'  
Track history (hours):
 
Tides and Currents Weather Stations Pressure Air Temp Water Temp Dewpoint Dewpoint Depression Visibility Wind Speed Wind Dir Waves Ship Positions

Richelieu

Last reported at 2018-Feb-22 10:29 UTC. Time now 2018-Feb-22 11:18 UTC.
Position N 56°16' E 012°12'.

Length 89 m; draft 5.4 m.

Type: Cargo ship. MMSI: 236354000.

Date/timePositionNaut miles runAvg speedWind from/ knotsBaromVisibWave heightAir tempDewpointWater temp
2018-Feb-22 10:29N 56°16' E 012°12'4 9.1
2018-Feb-22 10:01N 56°13' E 012°18'5 9.7
2018-Feb-22 09:30N 56°10' E 012°25'611.2
2018-Feb-22 09:00N 56°07' E 012°33'511.0
2018-Feb-22 08:31N 56°02' E 012°40'510.3
2018-Feb-22 08:01N 55°57' E 012°43'510.3
2018-Feb-22 07:31N 55°52' E 012°44'510.0
2018-Feb-22 07:00N 55°47' E 012°43'510.0
2018-Feb-22 06:30N 55°43' E 012°41'510.5
2018-Feb-22 06:00N 55°37' E 012°42'510.1
2018-Feb-22 05:30N 55°32' E 012°43'5 9.8
2018-Feb-22 05:00N 55°27' E 012°42'45 9.1
2018-Feb-22 00:02N 54°43' E 012°36'1 9.2
2018-Feb-21 23:54N 54°42' E 012°34'7 9.3
2018-Feb-21 23:10N 54°38' E 012°24'6 8.9
2018-Feb-21 22:31N 54°34' E 012°17'5 9.2
2018-Feb-21 22:01N 54°30' E 012°15'5 9.1
2018-Feb-21 21:30N 54°26' E 012°11'5 9.2
2018-Feb-21 21:00N 54°24' E 012°04'5 9.7
2018-Feb-21 20:30N 54°23' E 011°56'5 9.5
2018-Feb-21 20:00N 54°21' E 011°48'17 9.1
2018-Feb-21 18:08N 54°09' E 011°28'1 9.6
2018-Feb-21 17:59N 54°07' E 011°27'4 8.6
2018-Feb-21 17:30N 54°03' E 011°26'4 8.8
2018-Feb-21 17:00N 54°01' E 011°20'4 8.5
2018-Feb-21 16:30N 53°57' E 011°24'4 7.5
2018-Feb-21 16:01N 53°54' E 011°28'0 0.2
2018-Feb-21 15:28N 53°54' E 011°28'0 0.0
2018-Feb-21 14:58N 53°54' E 011°28'0 0.0
2018-Feb-21 14:28N 53°54' E 011°28'0 0.0
2018-Feb-21 13:58N 53°54' E 011°28'0 0.0
2018-Feb-21 13:25N 53°54' E 011°28'0 0.0
2018-Feb-21 12:58N 53°54' E 011°28'0 0.0
2018-Feb-21 12:28N 53°54' E 011°28'0 0.0
2018-Feb-21 11:58N 53°54' E 011°28'0 0.0
2018-Feb-21 11:28N 53°54' E 011°28'0 0.0
2018-Feb-21 10:58N 53°54' E 011°28'0 0.0
2018-Feb-21 10:28N 53°54' E 011°28'0 0.0
2018-Feb-21 09:58N 53°54' E 011°28'0 0.0
2018-Feb-21 09:28N 53°54' E 011°28'0 0.0
2018-Feb-21 08:58N 53°54' E 011°28'0 0.0
2018-Feb-21 08:28N 53°54' E 011°28'0 0.0
2018-Feb-21 07:58N 53°54' E 011°28'0 0.0
2018-Feb-21 07:28N 53°54' E 011°28'0 0.0
2018-Feb-21 06:58N 53°54' E 011°28'0 0.0
2018-Feb-21 06:28N 53°54' E 011°28'0 0.0
2018-Feb-21 05:58N 53°54' E 011°28'0 0.0
2018-Feb-21 05:25N 53°54' E 011°28'0 0.0
2018-Feb-21 04:58N 53°54' E 011°28'0 0.0
2018-Feb-21 04:28N 53°54' E 011°28'0 0.0
2018-Feb-21 03:58N 53°54' E 011°28'0 0.0
2018-Feb-21 03:28N 53°54' E 011°28'0 0.0
2018-Feb-21 02:58N 53°54' E 011°28'0 0.0
2018-Feb-21 02:28N 53°54' E 011°28'0 0.0
2018-Feb-21 01:58N 53°54' E 011°28'0 0.0
2018-Feb-21 01:28N 53°54' E 011°28'0 0.0
2018-Feb-21 00:58N 53°54' E 011°28'0 0.0
2018-Feb-21 00:28N 53°54' E 011°28'0 0.0
2018-Feb-20 23:58N 53°54' E 011°28'0 0.0
2018-Feb-20 23:28N 53°54' E 011°28'0 0.0
2018-Feb-20 22:58N 53°54' E 011°28'0 0.0
2018-Feb-20 22:28N 53°54' E 011°28'0 0.0
2018-Feb-20 21:58N 53°54' E 011°28'0 0.0
2018-Feb-20 21:28N 53°54' E 011°28'0 0.0
2018-Feb-20 20:58N 53°54' E 011°28'0 0.0
2018-Feb-20 20:28N 53°54' E 011°28'0 0.0
2018-Feb-20 19:58N 53°54' E 011°28'0 0.0
2018-Feb-20 19:28N 53°54' E 011°28'0 0.0
2018-Feb-20 18:58N 53°54' E 011°28'0 0.0
2018-Feb-20 18:28N 53°54' E 011°28'0 0.0
2018-Feb-20 17:58N 53°54' E 011°28'0 0.4
2018-Feb-20 17:28N 53°54' E 011°27'0 0.3
2018-Feb-20 16:58N 53°54' E 011°28'0 0.0
2018-Feb-20 16:28N 53°54' E 011°28'0 0.0
2018-Feb-20 15:58N 53°54' E 011°28'0 0.0
2018-Feb-20 15:28N 53°54' E 011°28'0 0.0
2018-Feb-20 14:58N 53°54' E 011°28'0 0.0
2018-Feb-20 14:28N 53°54' E 011°28'0 0.0
2018-Feb-20 13:58N 53°54' E 011°28'0 0.0
2018-Feb-20 13:28N 53°54' E 011°28'0 0.0
2018-Feb-20 12:58N 53°54' E 011°28'0 0.0
2018-Feb-20 12:28N 53°54' E 011°28'0 0.0
2018-Feb-20 11:58N 53°54' E 011°28'0 0.0
2018-Feb-20 11:28N 53°54' E 011°28'0 0.0
2018-Feb-20 10:58N 53°54' E 011°28'0 0.0
2018-Feb-20 10:28N 53°54' E 011°28'0 0.0
2018-Feb-20 09:58N 53°54' E 011°28'0 0.0
2018-Feb-20 09:25N 53°54' E 011°28'0 0.0
2018-Feb-20 08:58N 53°54' E 011°28'0 0.0
2018-Feb-20 08:28N 53°54' E 011°28'0 0.0
2018-Feb-20 07:58N 53°54' E 011°28'0 0.0
2018-Feb-20 07:28N 53°54' E 011°28'0 0.0
2018-Feb-20 06:58N 53°54' E 011°28'0 0.0
2018-Feb-20 06:28N 53°54' E 011°28'0 0.0
2018-Feb-20 05:58N 53°54' E 011°28'0 0.0
2018-Feb-20 05:28N 53°54' E 011°28'0 0.0
2018-Feb-20 04:58N 53°54' E 011°28'0 0.0
2018-Feb-20 04:28N 53°54' E 011°28'0 0.0
2018-Feb-20 03:58N 53°54' E 011°28'0 0.0
2018-Feb-20 03:28N 53°54' E 011°28'0 0.0
2018-Feb-20 02:58N 53°54' E 011°28'0 0.0
2018-Feb-20 02:28N 53°54' E 011°28'0 0.0
2018-Feb-20 01:58N 53°54' E 011°28'0 0.0
2018-Feb-20 01:28N 53°54' E 011°28'0 0.0
2018-Feb-20 00:58N 53°54' E 011°28'0 0.0
2018-Feb-20 00:28N 53°54' E 011°28'0 0.0
2018-Feb-19 23:58N 53°54' E 011°28'0 0.0
2018-Feb-19 23:28N 53°54' E 011°28'0 0.0
2018-Feb-19 22:58N 53°54' E 011°28'0 0.0
2018-Feb-19 22:28N 53°54' E 011°28'0 0.0
2018-Feb-19 21:58N 53°54' E 011°28'0 0.0
2018-Feb-19 21:25N 53°54' E 011°28'0 0.0
2018-Feb-19 20:58N 53°54' E 011°28'0 0.0
2018-Feb-19 20:28N 53°54' E 011°28'0 0.0
2018-Feb-19 19:58N 53°54' E 011°28'0 0.0
2018-Feb-19 19:28N 53°54' E 011°28'0 0.0
2018-Feb-19 18:58N 53°54' E 011°28'0 0.0
2018-Feb-19 18:28N 53°54' E 011°28'0 0.0
2018-Feb-19 17:58N 53°54' E 011°28'0 0.0
2018-Feb-19 17:28N 53°54' E 011°28'0 0.0
2018-Feb-19 16:58N 53°54' E 011°28'0 0.0
2018-Feb-19 16:28N 53°54' E 011°28'0 0.0
2018-Feb-19 15:58N 53°54' E 011°28'0 0.0
2018-Feb-19 15:28N 53°54' E 011°28'0 0.0
2018-Feb-19 14:58N 53°54' E 011°28'0 0.0
2018-Feb-19 14:28N 53°54' E 011°28'0 0.0
2018-Feb-19 13:58N 53°54' E 011°28'0 0.0
2018-Feb-19 13:28N 53°54' E 011°28'0 0.0
2018-Feb-19 12:58N 53°54' E 011°28'0 0.0
2018-Feb-19 12:28N 53°54' E 011°28'0 0.0
2018-Feb-19 11:58N 53°54' E 011°28'0 0.0
2018-Feb-19 11:28N 53°54' E 011°28'0 0.0
2018-Feb-19 10:58N 53°54' E 011°28'0 0.0
2018-Feb-19 10:28N 53°54' E 011°28'0 0.0
2018-Feb-19 09:58N 53°54' E 011°28'0 0.0
2018-Feb-19 09:28N 53°54' E 011°28'0 0.0
2018-Feb-19 08:58N 53°54' E 011°28'0 0.0
2018-Feb-19 08:25N 53°54' E 011°28'0 0.0
2018-Feb-19 07:58N 53°54' E 011°28'0 0.0
2018-Feb-19 07:28N 53°54' E 011°28'0 0.0
2018-Feb-19 06:58N 53°54' E 011°28'0 0.0
2018-Feb-19 06:28N 53°54' E 011°28'0 0.0
2018-Feb-19 05:58N 53°54' E 011°28'0 0.0
2018-Feb-19 05:28N 53°54' E 011°28'0 0.0
2018-Feb-19 04:58N 53°54' E 011°28'0 0.0
2018-Feb-19 04:28N 53°54' E 011°28'0 0.0
2018-Feb-19 03:58N 53°54' E 011°28'0 0.0
2018-Feb-19 03:28N 53°54' E 011°28'0 0.0
2018-Feb-19 02:58N 53°54' E 011°28'0 0.0
2018-Feb-19 02:28N 53°54' E 011°28'0 0.0
2018-Feb-19 01:58N 53°54' E 011°28'0 0.0
2018-Feb-19 01:28N 53°54' E 011°28'0 0.0
2018-Feb-19 00:58N 53°54' E 011°28'0 0.0
2018-Feb-19 00:28N 53°54' E 011°28'0 0.0
2018-Feb-18 23:58N 53°54' E 011°28'0 0.0
2018-Feb-18 23:28N 53°54' E 011°28'0 0.0
2018-Feb-18 22:58N 53°54' E 011°28'0 0.0
2018-Feb-18 22:28N 53°54' E 011°28'0 0.0
2018-Feb-18 21:58N 53°54' E 011°28'0 0.0
2018-Feb-18 21:28N 53°54' E 011°28'0 0.0
2018-Feb-18 20:58N 53°54' E 011°28'0 0.0
2018-Feb-18 20:28N 53°54' E 011°28'0 0.0
2018-Feb-18 19:58N 53°54' E 011°28'0 0.0
2018-Feb-18 19:28N 53°54' E 011°28'0 0.0
2018-Feb-18 18:58N 53°54' E 011°28'0 0.0
2018-Feb-18 18:28N 53°54' E 011°28'0 0.0
2018-Feb-18 17:58N 53°54' E 011°28'0 0.0
2018-Feb-18 17:28N 53°54' E 011°28'0 0.0
2018-Feb-18 16:58N 53°54' E 011°28'0 0.0
2018-Feb-18 16:28N 53°54' E 011°28'0 0.0
2018-Feb-18 15:58N 53°54' E 011°28'0 0.0
2018-Feb-18 15:28N 53°54' E 011°28'0 0.0
2018-Feb-18 14:58N 53°54' E 011°28'0 0.0
2018-Feb-18 14:28N 53°54' E 011°28'0 0.0
2018-Feb-18 13:55N 53°54' E 011°28'0 0.0
2018-Feb-18 13:28N 53°54' E 011°28'0 0.0
2018-Feb-18 12:58N 53°54' E 011°28'0 0.0
2018-Feb-18 12:25N 53°54' E 011°28'0 0.0
2018-Feb-18 11:58N 53°54' E 011°28'0 0.0
2018-Feb-18 11:28N 53°54' E 011°28'0 0.0
2018-Feb-18 10:58N 53°54' E 011°28'0 0.0
2018-Feb-18 10:28N 53°54' E 011°28'0 0.0
2018-Feb-18 09:58N 53°54' E 011°28'0 0.0
2018-Feb-18 09:28N 53°54' E 011°28'0 0.0
2018-Feb-18 08:58N 53°54' E 011°28'0 0.0
2018-Feb-18 08:28N 53°54' E 011°28'0 0.0
2018-Feb-18 07:58N 53°54' E 011°28'0 0.0
2018-Feb-18 07:28N 53°54' E 011°28'0 0.0
2018-Feb-18 06:58N 53°54' E 011°28'0 0.0
2018-Feb-18 06:28N 53°54' E 011°28'0 0.0
2018-Feb-18 05:58N 53°54' E 011°28'0 0.0
2018-Feb-18 05:28N 53°54' E 011°28'0 0.0
2018-Feb-18 04:58N 53°54' E 011°28'0 0.0
2018-Feb-18 04:28N 53°54' E 011°28'0 0.0
2018-Feb-18 03:58N 53°54' E 011°28'0 0.0
2018-Feb-18 03:28N 53°54' E 011°28'0 0.0
2018-Feb-18 02:58N 53°54' E 011°28'0 0.0
2018-Feb-18 02:28N 53°54' E 011°28'0 0.0
2018-Feb-18 01:58N 53°54' E 011°28'0 0.0
2018-Feb-18 01:28N 53°54' E 011°28'0 0.0
2018-Feb-18 00:58N 53°54' E 011°28'0 0.0
2018-Feb-18 00:28N 53°54' E 011°28'0 0.0
2018-Feb-17 23:55N 53°54' E 011°28'0 0.0
2018-Feb-17 23:28N 53°54' E 011°28'0 0.0
2018-Feb-17 22:58N 53°54' E 011°28'0 0.0
2018-Feb-17 22:28N 53°54' E 011°28'0 0.0
2018-Feb-17 21:58N 53°54' E 011°28'0 0.0
2018-Feb-17 21:28N 53°54' E 011°28'0 0.0
2018-Feb-17 20:58N 53°54' E 011°28'0 0.0
2018-Feb-17 20:28N 53°54' E 011°28'0 0.0
2018-Feb-17 19:58N 53°54' E 011°28'0 0.0
2018-Feb-17 19:28N 53°54' E 011°28'0 0.0
2018-Feb-17 18:58N 53°54' E 011°28'0 0.0
2018-Feb-17 18:28N 53°54' E 011°28'0 0.0
2018-Feb-17 17:58N 53°54' E 011°28'0 0.0
2018-Feb-17 17:28N 53°54' E 011°28'0 0.0
2018-Feb-17 16:58N 53°54' E 011°28'0 0.0
2018-Feb-17 16:28N 53°54' E 011°28'0 0.0
2018-Feb-17 15:58N 53°54' E 011°28'0 0.0
2018-Feb-17 15:28N 53°54' E 011°28'0 0.0
2018-Feb-17 14:58N 53°54' E 011°28'0 0.0
2018-Feb-17 14:28N 53°54' E 011°28'0 0.0
2018-Feb-17 13:58N 53°54' E 011°28'0 0.0
2018-Feb-17 13:28N 53°54' E 011°28'0 0.0
2018-Feb-17 12:58N 53°54' E 011°28'0 0.0
2018-Feb-17 12:28N 53°54' E 011°28'0 0.0
2018-Feb-17 11:58N 53°54' E 011°28'0 0.0
2018-Feb-17 11:28N 53°54' E 011°28'0 0.0
2018-Feb-17 10:58N 53°54' E 011°28'0 0.0
2018-Feb-17 10:28N 53°54' E 011°28'0 0.0
2018-Feb-17 09:58N 53°54' E 011°28'0 0.0
2018-Feb-17 09:28N 53°54' E 011°28'0 0.0
2018-Feb-17 08:58N 53°54' E 011°28'0 0.0
2018-Feb-17 08:28N 53°54' E 011°28'0 0.0
2018-Feb-17 07:58N 53°54' E 011°28'0 0.0
2018-Feb-17 07:28N 53°54' E 011°28'0 0.0
2018-Feb-17 06:58N 53°54' E 011°28'0 0.0
2018-Feb-17 06:28N 53°54' E 011°28'0 0.0
2018-Feb-17 05:58N 53°54' E 011°28'0 0.0
2018-Feb-17 05:28N 53°54' E 011°28'0 0.6
2018-Feb-17 05:00N 53°54' E 011°27'4 7.3
2018-Feb-17 04:30N 53°57' E 011°24'4 7.8
2018-Feb-17 04:00N 54°00' E 011°20'4 7.6
2018-Feb-17 03:30N 54°03' E 011°25'4 7.5
2018-Feb-17 03:00N 54°06' E 011°26'13 7.5
2018-Feb-17 01:16N 54°18' E 011°37'2 7.9
2018-Feb-17 01:00N 54°18' E 011°40'4 7.8
2018-Feb-17 00:30N 54°20' E 011°46'4 7.5
2018-Feb-17 00:00N 54°23' E 011°52'6 7.4
2018-Feb-16 23:15N 54°25' E 011°60'2 7.0
2018-Feb-16 23:00N 54°26' E 012°03'3 6.8
2018-Feb-16 22:30N 54°26' E 012°08'4 7.0
2018-Feb-16 22:00N 54°29' E 012°11'4 7.6
2018-Feb-16 21:30N 54°33' E 012°13'48 7.2
2018-Feb-16 14:46N 55°20' E 012°30'5 8.1
2018-Feb-16 14:09N 55°25' E 012°27'0 0.2
2018-Feb-16 13:22N 55°25' E 012°27'0 0.0
2018-Feb-16 11:55N 55°25' E 012°27'0 0.0
2018-Feb-16 11:30N 55°25' E 012°27'0 0.0
2018-Feb-16 10:39N 55°25' E 012°27'0 0.0
2018-Feb-16 10:29N 55°25' E 012°27'0 0.0
2018-Feb-16 08:31N 55°25' E 012°27'0 0.0
2018-Feb-16 05:39N 55°25' E 012°27'0 0.0
2018-Feb-16 05:30N 55°25' E 012°27'0 0.0
2018-Feb-16 05:00N 55°25' E 012°27'0 0.0
2018-Feb-16 04:29N 55°25' E 012°27'0 0.0
2018-Feb-16 03:59N 55°25' E 012°27'0 0.0
2018-Feb-15 18:50N 55°25' E 012°27'1 1.3
2018-Feb-15 18:24N 55°25' E 012°27'3 4.7
2018-Feb-15 17:50N 55°27' E 012°24'2 5.9
2018-Feb-15 17:27N 55°28' E 012°20'5 7.7
2018-Feb-15 16:49N 55°27' E 012°12'0 0.0
2018-Feb-15 16:29N 55°27' E 012°12'0 0.0
2018-Feb-15 15:53N 55°27' E 012°12'0 0.0
2018-Feb-15 15:29N 55°27' E 012°12'0 0.0
2018-Feb-15 14:59N 55°27' E 012°12'0 0.0
2018-Feb-15 14:17N 55°27' E 012°12'0 0.0
2018-Feb-15 13:53N 55°27' E 012°12'0 0.0
2018-Feb-15 13:29N 55°27' E 012°12'0 0.0
2018-Feb-15 12:59N 55°27' E 012°12'0 0.0
2018-Feb-15 12:29N 55°27' E 012°12'0 0.0
2018-Feb-15 11:56N 55°27' E 012°12'0 0.0
2018-Feb-15 11:20N 55°27' E 012°12'0 0.0
2018-Feb-15 10:59N 55°27' E 012°12'0 0.0
2018-Feb-15 10:20N 55°27' E 012°12'0 0.0
2018-Feb-15 09:59N 55°27' E 012°12'0 0.0
2018-Feb-15 09:29N 55°27' E 012°12'0 0.0
2018-Feb-15 08:59N 55°27' E 012°12'0 0.0
2018-Feb-15 08:17N 55°27' E 012°12'0 0.0
2018-Feb-15 07:59N 55°27' E 012°12'0 0.0
2018-Feb-15 07:23N 55°27' E 012°12'0 0.0
2018-Feb-15 06:59N 55°27' E 012°12'0 0.0
2018-Feb-15 06:20N 55°27' E 012°12'0 0.0
2018-Feb-15 05:59N 55°27' E 012°12'0 0.0
2018-Feb-15 05:26N 55°27' E 012°12'0 0.0
2018-Feb-15 04:59N 55°27' E 012°12'0 0.0
2018-Feb-15 04:26N 55°27' E 012°12'0 0.0
2018-Feb-15 03:59N 55°27' E 012°12'0 0.0
2018-Feb-15 03:26N 55°27' E 012°12'0 0.0
2018-Feb-15 02:59N 55°27' E 012°12'0 0.0
2018-Feb-15 02:29N 55°27' E 012°12'0 0.0
2018-Feb-15 01:59N 55°27' E 012°12'0 0.0
2018-Feb-15 01:26N 55°27' E 012°12'0 0.0
2018-Feb-15 00:56N 55°27' E 012°12'0 0.0
2018-Feb-15 00:26N 55°27' E 012°12'0 0.0
2018-Feb-14 23:59N 55°27' E 012°12'0 0.0
2018-Feb-14 23:29N 55°27' E 012°12'0 0.0
2018-Feb-14 22:56N 55°27' E 012°12'0 0.0
2018-Feb-14 22:29N 55°27' E 012°12'0 0.0
2018-Feb-14 21:59N 55°27' E 012°12'0 0.0
2018-Feb-14 21:26N 55°27' E 012°12'0 0.0
2018-Feb-14 20:56N 55°27' E 012°12'0 0.0
2018-Feb-14 20:29N 55°27' E 012°12'0 0.0
2018-Feb-14 19:59N 55°27' E 012°12'0 0.0
2018-Feb-14 19:23N 55°27' E 012°12'0 0.0
2018-Feb-14 18:56N 55°27' E 012°12'0 0.0
2018-Feb-14 18:23N 55°27' E 012°12'0 0.0
2018-Feb-14 17:59N 55°27' E 012°12'0 0.0
2018-Feb-14 17:26N 55°27' E 012°12'0 0.0
2018-Feb-14 16:56N 55°27' E 012°12'0 0.0
2018-Feb-14 16:29N 55°27' E 012°12'0 0.0
2018-Feb-14 15:59N 55°27' E 012°12'0 0.0
2018-Feb-14 15:23N 55°27' E 012°12'0 0.0
2018-Feb-14 14:56N 55°27' E 012°12'0 0.0
2018-Feb-14 12:44N 55°27' E 012°12'0 0.0
2018-Feb-14 12:17N 55°27' E 012°12'0 0.0
2018-Feb-14 11:56N 55°27' E 012°12'0 0.0
2018-Feb-14 11:29N 55°27' E 012°12'0 0.0
2018-Feb-14 10:53N 55°27' E 012°12'0 0.0
2018-Feb-14 10:29N 55°27' E 012°12'0 0.0
2018-Feb-14 09:53N 55°27' E 012°12'0 0.0
2018-Feb-14 09:29N 55°27' E 012°12'0 0.0
2018-Feb-14 08:59N 55°27' E 012°12'0 0.0
2018-Feb-14 08:29N 55°27' E 012°12'0 0.0
2018-Feb-14 07:56N 55°27' E 012°12'0 0.0
2018-Feb-14 07:29N 55°27' E 012°12'0 0.0
2018-Feb-14 06:59N 55°27' E 012°12'0 0.0
2018-Feb-14 06:29N 55°27' E 012°12'0 0.0
2018-Feb-14 05:56N 55°27' E 012°12'0 0.0
2018-Feb-14 05:29N 55°27' E 012°12'0 0.0
2018-Feb-14 04:59N 55°27' E 012°12'0 0.0
2018-Feb-14 04:29N 55°27' E 012°12'0 0.0
2018-Feb-14 03:59N 55°27' E 012°12'0 0.0
2018-Feb-14 03:29N 55°27' E 012°12'0 0.0
2018-Feb-14 02:59N 55°27' E 012°12'0 0.0
2018-Feb-14 02:29N 55°27' E 012°12'0 0.0
2018-Feb-14 01:56N 55°27' E 012°12'0 0.0
2018-Feb-14 01:29N 55°27' E 012°12'0 0.0
2018-Feb-14 00:59N 55°27' E 012°12'0 0.0
2018-Feb-14 00:29N 55°27' E 012°12'0 0.0
2018-Feb-13 23:56N 55°27' E 012°12'0 0.0
2018-Feb-13 23:29N 55°27' E 012°12'0 0.0
2018-Feb-13 22:59N 55°27' E 012°12'0 0.0
2018-Feb-13 22:29N 55°27' E 012°12'0 0.0
2018-Feb-13 21:59N 55°27' E 012°12'0 0.0
2018-Feb-13 21:26N 55°27' E 012°12'0 0.0
2018-Feb-13 20:53N 55°27' E 012°12'0 0.0
2018-Feb-13 20:26N 55°27' E 012°12'0 0.0
2018-Feb-13 19:59N 55°27' E 012°12'0 0.0
2018-Feb-13 19:29N 55°27' E 012°12'0 0.0
2018-Feb-13 18:56N 55°27' E 012°12'0 0.0
2018-Feb-13 18:26N 55°27' E 012°12'0 0.0
2018-Feb-13 17:59N 55°27' E 012°12'0 0.0
2018-Feb-13 17:29N 55°27' E 012°12'0 0.1
2018-Feb-13 16:56N 55°27' E 012°12'0 0.2
2018-Feb-13 16:29N 55°27' E 012°12'0 0.0
2018-Feb-13 15:59N 55°27' E 012°12'0 0.0
2018-Feb-13 15:29N 55°27' E 012°12'0 0.0
2018-Feb-13 14:59N 55°27' E 012°12'0 0.0
2018-Feb-13 14:29N 55°27' E 012°12'0 0.0
2018-Feb-13 13:59N 55°27' E 012°12'0 0.0
2018-Feb-13 13:29N 55°27' E 012°12'0 0.0
2018-Feb-13 12:53N 55°27' E 012°12'0 0.0
2018-Feb-13 12:29N 55°27' E 012°12'0 0.0
2018-Feb-13 11:59N 55°27' E 012°12'0 0.0
2018-Feb-13 11:29N 55°27' E 012°12'0 0.0
2018-Feb-13 10:59N 55°27' E 012°12'0 0.0
2018-Feb-13 10:26N 55°27' E 012°12'0 0.0
2018-Feb-13 09:59N 55°27' E 012°12'0 0.0
2018-Feb-13 09:23N 55°27' E 012°12'0 0.0
2018-Feb-13 08:56N 55°27' E 012°12'0 0.0
2018-Feb-13 08:23N 55°27' E 012°12'0 0.0
2018-Feb-13 07:59N 55°27' E 012°12'0 0.0
2018-Feb-13 07:29N 55°27' E 012°12'0 0.0
2018-Feb-13 06:59N 55°27' E 012°12'0 0.0
2018-Feb-13 06:26N 55°27' E 012°12'0 0.0
2018-Feb-13 05:59N 55°27' E 012°12'0 0.0
2018-Feb-13 05:29N 55°27' E 012°12'0 0.0
2018-Feb-13 04:56N 55°27' E 012°12'0 0.0
2018-Feb-13 04:29N 55°27' E 012°12'0 0.0
2018-Feb-13 03:59N 55°27' E 012°12'0 0.0
2018-Feb-13 03:29N 55°27' E 012°12'0 0.0
2018-Feb-13 02:59N 55°27' E 012°12'0 0.0
2018-Feb-13 02:29N 55°27' E 012°12'0 0.0
2018-Feb-13 01:56N 55°27' E 012°12'0 0.0
2018-Feb-13 01:29N 55°27' E 012°12'0 0.0
2018-Feb-13 00:59N 55°27' E 012°12'0 0.0
2018-Feb-13 00:29N 55°27' E 012°12'0 0.0
2018-Feb-12 23:59N 55°27' E 012°12'0 0.0
2018-Feb-12 23:29N 55°27' E 012°12'0 0.0
2018-Feb-12 22:59N 55°27' E 012°12'0 0.0
2018-Feb-12 22:29N 55°27' E 012°12'0 0.0
2018-Feb-12 21:59N 55°27' E 012°12'0 0.0
2018-Feb-12 21:26N 55°27' E 012°12'0 0.0
2018-Feb-12 20:59N 55°27' E 012°12'0 0.0
2018-Feb-12 20:20N 55°27' E 012°12'0 0.0
2018-Feb-12 19:59N 55°27' E 012°12'0 0.0
2018-Feb-12 19:29N 55°27' E 012°12'0 0.0
2018-Feb-12 18:56N 55°27' E 012°12'0 0.0
2018-Feb-12 18:26N 55°27' E 012°12'0 0.0
2018-Feb-12 17:53N 55°27' E 012°12'0 0.0
2018-Feb-12 17:29N 55°27' E 012°12'0 0.0
2018-Feb-12 16:59N 55°27' E 012°12'0 0.0
2018-Feb-12 16:29N 55°27' E 012°12'0 0.0
2018-Feb-12 15:59N 55°27' E 012°12'0 0.0
2018-Feb-12 15:17N 55°27' E 012°12'0 0.0
2018-Feb-12 14:59N 55°27' E 012°12'0 0.0
2018-Feb-12 13:59N 55°27' E 012°12'0 0.0
2018-Feb-12 13:26N 55°27' E 012°12'0 0.0
2018-Feb-12 12:56N 55°27' E 012°12'0 0.0
2018-Feb-12 12:29N 55°27' E 012°12'0 0.0
2018-Feb-12 11:50N 55°27' E 012°12'0 0.0
2018-Feb-12 11:26N 55°27' E 012°12'0 0.0
2018-Feb-12 10:59N 55°27' E 012°12'  

Dump ship's entire track history